sensor_id;sensor_type;location;lat;lon;timestamp;temperature;humidity
11122;DHT22;5615;49.304;10.576;2022-08-05T00:01:53;23.00;99.90
11122;DHT22;5615;49.304;10.576;2022-08-05T00:04:19;23.00;99.90
11122;DHT22;5615;49.304;10.576;2022-08-05T00:06:46;23.00;99.90
11122;DHT22;5615;49.304;10.576;2022-08-05T00:09:13;23.00;99.90
11122;DHT22;5615;49.304;10.576;2022-08-05T00:11:39;22.90;99.90
11122;DHT22;5615;49.304;10.576;2022-08-05T00:14:06;22.90;99.90
11122;DHT22;5615;49.304;10.576;2022-08-05T00:16:33;22.70;99.90
11122;DHT22;5615;49.304;10.576;2022-08-05T00:19:01;22.70;99.90
11122;DHT22;5615;49.304;10.576;2022-08-05T00:21:27;22.60;99.90
11122;DHT22;5615;49.304;10.576;2022-08-05T00:23:54;22.60;99.90
11122;DHT22;5615;49.304;10.576;2022-08-05T00:26:21;22.70;99.90
11122;DHT22;5615;49.304;10.576;2022-08-05T00:28:48;22.70;99.90
11122;DHT22;5615;49.304;10.576;2022-08-05T00:31:14;22.70;99.90
11122;DHT22;5615;49.304;10.576;2022-08-05T00:33:41;22.70;99.90
11122;DHT22;5615;49.304;10.576;2022-08-05T00:36:09;22.60;99.90
11122;DHT22;5615;49.304;10.576;2022-08-05T00:38:36;22.60;99.90
11122;DHT22;5615;49.304;10.576;2022-08-05T00:41:04;22.60;99.90
11122;DHT22;5615;49.304;10.576;2022-08-05T00:43:32;22.60;99.90
11122;DHT22;5615;49.304;10.576;2022-08-05T00:45:58;22.70;99.90
11122;DHT22;5615;49.304;10.576;2022-08-05T00:48:25;22.40;99.90
11122;DHT22;5615;49.304;10.576;2022-08-05T00:50:52;22.30;99.90
11122;DHT22;5615;49.304;10.576;2022-08-05T00:53:21;22.40;99.90
11122;DHT22;5615;49.304;10.576;2022-08-05T00:55:49;22.30;99.90
11122;DHT22;5615;49.304;10.576;2022-08-05T00:58:16;22.30;99.90
11122;DHT22;5615;49.304;10.576;2022-08-05T01:00:44;22.30;99.90
11122;DHT22;5615;49.304;10.576;2022-08-05T01:03:11;22.30;99.90
11122;DHT22;5615;49.304;10.576;2022-08-05T01:05:38;22.30;99.90
11122;DHT22;5615;49.304;10.576;2022-08-05T01:08:05;22.20;99.90
11122;DHT22;5615;49.304;10.576;2022-08-05T01:10:39;22.30;99.90
11122;DHT22;5615;49.304;10.576;2022-08-05T01:13:14;22.20;99.90
11122;DHT22;5615;49.304;10.576;2022-08-05T01:15:45;22.10;99.90
11122;DHT22;5615;49.304;10.576;2022-08-05T01:18:19;22.10;99.90
11122;DHT22;5615;49.304;10.576;2022-08-05T01:20:52;22.00;99.90
11122;DHT22;5615;49.304;10.576;2022-08-05T01:23:34;22.00;99.90
11122;DHT22;5615;49.304;10.576;2022-08-05T01:26:17;22.10;99.90
11122;DHT22;5615;49.304;10.576;2022-08-05T01:28:52;22.00;99.90
11122;DHT22;5615;49.304;10.576;2022-08-05T01:31:23;21.90;99.90
11122;DHT22;5615;49.304;10.576;2022-08-05T01:33:58;21.90;99.90
11122;DHT22;5615;49.304;10.576;2022-08-05T01:36:29;21.90;99.90
11122;DHT22;5615;49.304;10.576;2022-08-05T01:38:57;21.80;99.90
11122;DHT22;5615;49.304;10.576;2022-08-05T01:41:26;21.70;99.90
11122;DHT22;5615;49.304;10.576;2022-08-05T01:43:56;21.70;99.90
11122;DHT22;5615;49.304;10.576;2022-08-05T01:46:23;21.70;99.90
11122;DHT22;5615;49.304;10.576;2022-08-05T01:48:52;21.70;99.90
11122;DHT22;5615;49.304;10.576;2022-08-05T01:51:21;21.70;99.90
11122;DHT22;5615;49.304;10.576;2022-08-05T01:53:50;21.70;99.90
11122;DHT22;5615;49.304;10.576;2022-08-05T01:56:18;21.70;99.90
11122;DHT22;5615;49.304;10.576;2022-08-05T01:58:48;21.60;99.90
11122;DHT22;5615;49.304;10.576;2022-08-05T02:01:17;21.50;99.90
11122;DHT22;5615;49.304;10.576;2022-08-05T02:03:46;21.60;99.90
11122;DHT22;5615;49.304;10.576;2022-08-05T02:06:15;21.60;99.90
11122;DHT22;5615;49.304;10.576;2022-08-05T02:08:41;21.60;99.90
11122;DHT22;5615;49.304;10.576;2022-08-05T02:11:10;21.60;99.90
11122;DHT22;5615;49.304;10.576;2022-08-05T02:13:43;21.50;99.90
11122;DHT22;5615;49.304;10.576;2022-08-05T02:16:14;21.60;99.90
11122;DHT22;5615;49.304;10.576;2022-08-05T02:18:47;21.50;99.90
11122;DHT22;5615;49.304;10.576;2022-08-05T02:21:17;21.40;99.90
11122;DHT22;5615;49.304;10.576;2022-08-05T02:23:47;21.60;99.90
11122;DHT22;5615;49.304;10.576;2022-08-05T02:26:20;21.60;99.90
11122;DHT22;5615;49.304;10.576;2022-08-05T02:28:48;21.60;99.90
11122;DHT22;5615;49.304;10.576;2022-08-05T02:31:22;21.70;99.90
11122;DHT22;5615;49.304;10.576;2022-08-05T02:33:56;21.70;99.90
11122;DHT22;5615;49.304;10.576;2022-08-05T02:36:24;21.70;99.90
11122;DHT22;5615;49.304;10.576;2022-08-05T02:38:54;21.70;99.90
11122;DHT22;5615;49.304;10.576;2022-08-05T02:41:23;21.70;99.90
11122;DHT22;5615;49.304;10.576;2022-08-05T02:43:51;21.70;99.90
11122;DHT22;5615;49.304;10.576;2022-08-05T02:46:19;21.70;99.90
11122;DHT22;5615;49.304;10.576;2022-08-05T02:48:47;21.70;99.90
11122;DHT22;5615;49.304;10.576;2022-08-05T02:51:16;21.60;99.90
11122;DHT22;5615;49.304;10.576;2022-08-05T02:53:44;21.50;99.90
11122;DHT22;5615;49.304;10.576;2022-08-05T02:56:12;21.60;99.90
11122;DHT22;5615;49.304;10.576;2022-08-05T02:58:39;22.20;99.90
11122;DHT22;5615;49.304;10.576;2022-08-05T03:01:09;22.30;99.90
11122;DHT22;5615;49.304;10.576;2022-08-05T03:03:39;22.30;99.90
11122;DHT22;5615;49.304;10.576;2022-08-05T03:06:07;22.20;99.90
11122;DHT22;5615;49.304;10.576;2022-08-05T03:08:38;22.10;99.90
11122;DHT22;5615;49.304;10.576;2022-08-05T03:11:15;22.30;99.90
11122;DHT22;5615;49.304;10.576;2022-08-05T03:13:42;22.30;99.90
11122;DHT22;5615;49.304;10.576;2022-08-05T03:16:09;22.50;99.90
11122;DHT22;5615;49.304;10.576;2022-08-05T03:18:36;22.60;99.90
11122;DHT22;5615;49.304;10.576;2022-08-05T03:21:03;22.70;99.90
11122;DHT22;5615;49.304;10.576;2022-08-05T03:23:29;22.70;99.90
11122;DHT22;5615;49.304;10.576;2022-08-05T03:25:59;22.70;99.90
11122;DHT22;5615;49.304;10.576;2022-08-05T03:28:26;22.70;99.90
11122;DHT22;5615;49.304;10.576;2022-08-05T03:30:53;22.70;99.90
11122;DHT22;5615;49.304;10.576;2022-08-05T03:33:20;22.70;99.90
11122;DHT22;5615;49.304;10.576;2022-08-05T03:35:47;22.70;99.90
11122;DHT22;5615;49.304;10.576;2022-08-05T03:38:14;22.70;99.90
11122;DHT22;5615;49.304;10.576;2022-08-05T03:40:41;22.70;99.90
11122;DHT22;5615;49.304;10.576;2022-08-05T03:43:09;22.60;99.90
11122;DHT22;5615;49.304;10.576;2022-08-05T03:45:36;22.70;99.90
11122;DHT22;5615;49.304;10.576;2022-08-05T03:48:03;22.70;99.90
11122;DHT22;5615;49.304;10.576;2022-08-05T03:50:37;22.60;99.90
11122;DHT22;5615;49.304;10.576;2022-08-05T03:53:10;22.60;99.90
11122;DHT22;5615;49.304;10.576;2022-08-05T03:55:41;22.50;99.90
11122;DHT22;5615;49.304;10.576;2022-08-05T03:58:15;22.40;99.90
11122;DHT22;5615;49.304;10.576;2022-08-05T04:00:43;22.40;99.90
11122;DHT22;5615;49.304;10.576;2022-08-05T04:03:12;22.40;99.90
11122;DHT22;5615;49.304;10.576;2022-08-05T04:05:40;22.40;99.90
11122;DHT22;5615;49.304;10.576;2022-08-05T04:08:09;22.40;99.90
11122;DHT22;5615;49.304;10.576;2022-08-05T04:10:37;22.30;99.90
11122;DHT22;5615;49.304;10.576;2022-08-05T04:13:05;22.30;99.90
11122;DHT22;5615;49.304;10.576;2022-08-05T04:15:33;22.30;99.90
11122;DHT22;5615;49.304;10.576;2022-08-05T04:18:01;22.30;99.90
11122;DHT22;5615;49.304;10.576;2022-08-05T04:20:28;22.30;99.90
11122;DHT22;5615;49.304;10.576;2022-08-05T04:22:55;22.40;99.90
11122;DHT22;5615;49.304;10.576;2022-08-05T04:25:22;22.30;99.90
11122;DHT22;5615;49.304;10.576;2022-08-05T04:27:48;22.40;99.90
11122;DHT22;5615;49.304;10.576;2022-08-05T04:30:15;22.40;99.90
11122;DHT22;5615;49.304;10.576;2022-08-05T04:32:43;22.40;99.90
11122;DHT22;5615;49.304;10.576;2022-08-05T04:35:09;22.40;99.90
11122;DHT22;5615;49.304;10.576;2022-08-05T04:37:36;22.60;99.90
11122;DHT22;5615;49.304;10.576;2022-08-05T04:40:04;22.70;99.90
11122;DHT22;5615;49.304;10.576;2022-08-05T04:42:31;22.80;99.90
11122;DHT22;5615;49.304;10.576;2022-08-05T04:44:58;22.80;99.90
11122;DHT22;5615;49.304;10.576;2022-08-05T04:47:24;22.90;99.90
11122;DHT22;5615;49.304;10.576;2022-08-05T04:49:52;22.90;99.90
11122;DHT22;5615;49.304;10.576;2022-08-05T04:52:19;22.90;99.90
11122;DHT22;5615;49.304;10.576;2022-08-05T04:54:45;22.90;99.90
11122;DHT22;5615;49.304;10.576;2022-08-05T04:57:12;22.90;99.90
11122;DHT22;5615;49.304;10.576;2022-08-05T04:59:39;22.90;99.90
11122;DHT22;5615;49.304;10.576;2022-08-05T05:02:06;22.90;99.90
11122;DHT22;5615;49.304;10.576;2022-08-05T05:04:33;23.10;99.90
11122;DHT22;5615;49.304;10.576;2022-08-05T05:07:01;23.20;99.90
11122;DHT22;5615;49.304;10.576;2022-08-05T05:09:27;23.20;99.90
11122;DHT22;5615;49.304;10.576;2022-08-05T05:11:54;23.30;99.90
11122;DHT22;5615;49.304;10.576;2022-08-05T05:14:21;23.50;99.90
11122;DHT22;5615;49.304;10.576;2022-08-05T05:16:48;23.70;99.90
11122;DHT22;5615;49.304;10.576;2022-08-05T05:19:14;23.80;99.90
11122;DHT22;5615;49.304;10.576;2022-08-05T05:21:41;23.90;99.90
11122;DHT22;5615;49.304;10.576;2022-08-05T05:24:09;24.00;99.90
11122;DHT22;5615;49.304;10.576;2022-08-05T05:26:35;24.00;99.90
11122;DHT22;5615;49.304;10.576;2022-08-05T05:29:02;24.10;99.90
11122;DHT22;5615;49.304;10.576;2022-08-05T05:31:29;24.00;99.90
11122;DHT22;5615;49.304;10.576;2022-08-05T05:33:56;24.00;99.90
11122;DHT22;5615;49.304;10.576;2022-08-05T05:36:23;24.00;99.90
11122;DHT22;5615;49.304;10.576;2022-08-05T05:38:49;24.20;99.90
11122;DHT22;5615;49.304;10.576;2022-08-05T05:41:17;24.40;99.90
11122;DHT22;5615;49.304;10.576;2022-08-05T05:43:44;24.50;99.90
11122;DHT22;5615;49.304;10.576;2022-08-05T05:46:11;24.60;99.90
11122;DHT22;5615;49.304;10.576;2022-08-05T05:48:37;24.80;99.90
11122;DHT22;5615;49.304;10.576;2022-08-05T05:51:06;24.70;99.90
11122;DHT22;5615;49.304;10.576;2022-08-05T05:53:32;24.70;99.90
11122;DHT22;5615;49.304;10.576;2022-08-05T05:55:59;24.70;99.90
11122;DHT22;5615;49.304;10.576;2022-08-05T05:58:27;24.60;99.90
11122;DHT22;5615;49.304;10.576;2022-08-05T06:00:54;24.40;99.90
11122;DHT22;5615;49.304;10.576;2022-08-05T06:03:20;24.20;99.90
11122;DHT22;5615;49.304;10.576;2022-08-05T06:05:47;24.20;99.90
11122;DHT22;5615;49.304;10.576;2022-08-05T06:08:14;24.20;99.90
11122;DHT22;5615;49.304;10.576;2022-08-05T06:10:41;24.20;99.90
11122;DHT22;5615;49.304;10.576;2022-08-05T06:13:08;24.20;99.90
11122;DHT22;5615;49.304;10.576;2022-08-05T06:15:36;24.20;99.90
11122;DHT22;5615;49.304;10.576;2022-08-05T06:18:03;24.20;99.90
11122;DHT22;5615;49.304;10.576;2022-08-05T06:20:29;24.10;99.90
11122;DHT22;5615;49.304;10.576;2022-08-05T06:22:57;24.10;99.90
11122;DHT22;5615;49.304;10.576;2022-08-05T06:25:24;24.20;99.90
11122;DHT22;5615;49.304;10.576;2022-08-05T06:27:50;24.30;99.90
11122;DHT22;5615;49.304;10.576;2022-08-05T06:30:17;24.20;99.90
11122;DHT22;5615;49.304;10.576;2022-08-05T06:32:46;24.20;99.90
11122;DHT22;5615;49.304;10.576;2022-08-05T06:35:13;24.20;99.90
11122;DHT22;5615;49.304;10.576;2022-08-05T06:37:39;24.50;99.90
11122;DHT22;5615;49.304;10.576;2022-08-05T06:40:07;24.50;99.90
11122;DHT22;5615;49.304;10.576;2022-08-05T06:42:34;24.70;99.90
11122;DHT22;5615;49.304;10.576;2022-08-05T06:45:00;25.00;99.90
11122;DHT22;5615;49.304;10.576;2022-08-05T06:47:27;24.90;99.90
11122;DHT22;5615;49.304;10.576;2022-08-05T06:49:55;25.00;99.90
11122;DHT22;5615;49.304;10.576;2022-08-05T06:52:22;25.20;99.90
11122;DHT22;5615;49.304;10.576;2022-08-05T06:54:49;25.00;99.90
11122;DHT22;5615;49.304;10.576;2022-08-05T06:57:15;25.10;99.90
11122;DHT22;5615;49.304;10.576;2022-08-05T06:59:43;25.50;99.90
11122;DHT22;5615;49.304;10.576;2022-08-05T07:02:09;25.70;99.90
11122;DHT22;5615;49.304;10.576;2022-08-05T07:04:36;25.60;99.90
11122;DHT22;5615;49.304;10.576;2022-08-05T07:07:04;25.70;99.90
11122;DHT22;5615;49.304;10.576;2022-08-05T07:09:31;26.00;99.90
11122;DHT22;5615;49.304;10.576;2022-08-05T07:11:57;26.00;99.90
11122;DHT22;5615;49.304;10.576;2022-08-05T07:14:24;26.30;99.90
11122;DHT22;5615;49.304;10.576;2022-08-05T07:17:08;26.40;99.90
11122;DHT22;5615;49.304;10.576;2022-08-05T07:19:35;26.30;99.90
11122;DHT22;5615;49.304;10.576;2022-08-05T07:22:01;26.30;99.90
11122;DHT22;5615;49.304;10.576;2022-08-05T07:24:29;26.30;99.90
11122;DHT22;5615;49.304;10.576;2022-08-05T07:26:56;26.20;99.90
11122;DHT22;5615;49.304;10.576;2022-08-05T07:29:23;26.10;99.90
11122;DHT22;5615;49.304;10.576;2022-08-05T07:31:50;26.20;99.90
11122;DHT22;5615;49.304;10.576;2022-08-05T07:34:16;26.30;99.90
11122;DHT22;5615;49.304;10.576;2022-08-05T07:36:43;26.10;99.90
11122;DHT22;5615;49.304;10.576;2022-08-05T07:39:10;26.10;99.90
11122;DHT22;5615;49.304;10.576;2022-08-05T07:41:38;26.50;99.90
11122;DHT22;5615;49.304;10.576;2022-08-05T07:44:06;26.20;99.90
11122;DHT22;5615;49.304;10.576;2022-08-05T07:46:33;25.90;99.90
11122;DHT22;5615;49.304;10.576;2022-08-05T07:49:01;25.80;99.90
11122;DHT22;5615;49.304;10.576;2022-08-05T07:51:29;25.80;99.90
11122;DHT22;5615;49.304;10.576;2022-08-05T07:53:56;26.20;99.90
11122;DHT22;5615;49.304;10.576;2022-08-05T07:56:22;26.40;99.90
11122;DHT22;5615;49.304;10.576;2022-08-05T07:58:50;26.50;99.90
11122;DHT22;5615;49.304;10.576;2022-08-05T08:01:17;26.60;99.90
11122;DHT22;5615;49.304;10.576;2022-08-05T08:03:45;26.80;99.90
11122;DHT22;5615;49.304;10.576;2022-08-05T08:06:11;27.00;99.90
11122;DHT22;5615;49.304;10.576;2022-08-05T08:08:38;27.00;99.90
11122;DHT22;5615;49.304;10.576;2022-08-05T08:11:05;27.00;99.90
11122;DHT22;5615;49.304;10.576;2022-08-05T08:13:31;27.00;99.90
11122;DHT22;5615;49.304;10.576;2022-08-05T08:15:59;27.00;99.90
11122;DHT22;5615;49.304;10.576;2022-08-05T08:18:26;26.90;99.90
11122;DHT22;5615;49.304;10.576;2022-08-05T08:20:53;27.00;99.90
11122;DHT22;5615;49.304;10.576;2022-08-05T08:23:19;27.30;99.90
11122;DHT22;5615;49.304;10.576;2022-08-05T08:25:46;27.60;99.90
11122;DHT22;5615;49.304;10.576;2022-08-05T08:28:13;27.90;99.90
11122;DHT22;5615;49.304;10.576;2022-08-05T08:30:39;27.70;99.70
11122;DHT22;5615;49.304;10.576;2022-08-05T08:33:08;27.80;98.90
11122;DHT22;5615;49.304;10.576;2022-08-05T08:35:36;28.00;97.00
11122;DHT22;5615;49.304;10.576;2022-08-05T08:38:03;28.00;97.00
11122;DHT22;5615;49.304;10.576;2022-08-05T08:40:32;28.20;95.20
11122;DHT22;5615;49.304;10.576;2022-08-05T08:43:00;28.40;92.90
11122;DHT22;5615;49.304;10.576;2022-08-05T08:45:29;28.70;90.90
11122;DHT22;5615;49.304;10.576;2022-08-05T08:47:57;28.30;90.70
11122;DHT22;5615;49.304;10.576;2022-08-05T08:50:29;28.20;90.80
11122;DHT22;5615;49.304;10.576;2022-08-05T08:53:01;28.20;90.20
11122;DHT22;5615;49.304;10.576;2022-08-05T08:55:28;28.50;90.00
11122;DHT22;5615;49.304;10.576;2022-08-05T08:57:57;28.90;87.60
11122;DHT22;5615;49.304;10.576;2022-08-05T09:00:24;29.00;86.80
11122;DHT22;5615;49.304;10.576;2022-08-05T09:02:51;29.40;83.40
11122;DHT22;5615;49.304;10.576;2022-08-05T09:05:19;29.70;80.40
11122;DHT22;5615;49.304;10.576;2022-08-05T09:07:47;29.50;75.10
11122;DHT22;5615;49.304;10.576;2022-08-05T09:10:14;29.80;71.70
11122;DHT22;5615;49.304;10.576;2022-08-05T09:12:40;29.80;71.00
11122;DHT22;5615;49.304;10.576;2022-08-05T09:15:08;29.80;69.70
11122;DHT22;5615;49.304;10.576;2022-08-05T09:17:35;30.00;66.90
11122;DHT22;5615;49.304;10.576;2022-08-05T09:20:03;29.60;65.50
11122;DHT22;5615;49.304;10.576;2022-08-05T09:23:05;29.40;63.80
11122;DHT22;5615;49.304;10.576;2022-08-05T09:25:32;29.80;64.10
11122;DHT22;5615;49.304;10.576;2022-08-05T09:28:09;29.50;63.40
11122;DHT22;5615;49.304;10.576;2022-08-05T09:30:36;29.60;63.50
11122;DHT22;5615;49.304;10.576;2022-08-05T09:33:03;29.70;63.10
11122;DHT22;5615;49.304;10.576;2022-08-05T09:35:31;30.10;63.40
11122;DHT22;5615;49.304;10.576;2022-08-05T09:37:57;30.40;63.20
11122;DHT22;5615;49.304;10.576;2022-08-05T09:40:33;30.60;61.30
11122;DHT22;5615;49.304;10.576;2022-08-05T09:43:02;30.60;59.60
11122;DHT22;5615;49.304;10.576;2022-08-05T09:45:35;30.80;57.60
11122;DHT22;5615;49.304;10.576;2022-08-05T09:48:18;30.80;57.60
11122;DHT22;5615;49.304;10.576;2022-08-05T09:50:49;31.20;54.50
11122;DHT22;5615;49.304;10.576;2022-08-05T09:53:16;31.00;53.70
11122;DHT22;5615;49.304;10.576;2022-08-05T09:55:44;30.80;53.10
11122;DHT22;5615;49.304;10.576;2022-08-05T09:58:12;30.60;53.20
11122;DHT22;5615;49.304;10.576;2022-08-05T10:00:39;30.90;52.30
11122;DHT22;5615;49.304;10.576;2022-08-05T10:03:16;30.70;51.20
11122;DHT22;5615;49.304;10.576;2022-08-05T10:05:43;31.00;50.50
11122;DHT22;5615;49.304;10.576;2022-08-05T10:08:10;30.90;50.50
11122;DHT22;5615;49.304;10.576;2022-08-05T10:10:45;31.40;49.90
11122;DHT22;5615;49.304;10.576;2022-08-05T10:13:26;31.80;48.90
11122;DHT22;5615;49.304;10.576;2022-08-05T10:15:53;31.90;47.60
11122;DHT22;5615;49.304;10.576;2022-08-05T10:18:20;31.90;47.40
11122;DHT22;5615;49.304;10.576;2022-08-05T10:20:49;32.20;46.70
11122;DHT22;5615;49.304;10.576;2022-08-05T10:23:18;32.40;46.70
11122;DHT22;5615;49.304;10.576;2022-08-05T10:25:45;32.80;45.50
11122;DHT22;5615;49.304;10.576;2022-08-05T10:28:14;32.70;44.50
11122;DHT22;5615;49.304;10.576;2022-08-05T10:30:41;33.40;44.60
11122;DHT22;5615;49.304;10.576;2022-08-05T10:33:08;33.30;43.40
11122;DHT22;5615;49.304;10.576;2022-08-05T10:35:36;32.30;44.00
11122;DHT22;5615;49.304;10.576;2022-08-05T10:38:03;32.90;43.90
11122;DHT22;5615;49.304;10.576;2022-08-05T10:40:35;32.40;42.90
11122;DHT22;5615;49.304;10.576;2022-08-05T10:43:11;32.20;43.90
11122;DHT22;5615;49.304;10.576;2022-08-05T10:45:39;32.60;43.50
11122;DHT22;5615;49.304;10.576;2022-08-05T10:48:31;33.40;41.80
11122;DHT22;5615;49.304;10.576;2022-08-05T10:51:01;34.80;40.70
11122;DHT22;5615;49.304;10.576;2022-08-05T10:53:42;35.70;39.20
11122;DHT22;5615;49.304;10.576;2022-08-05T10:56:12;35.40;38.20
11122;DHT22;5615;49.304;10.576;2022-08-05T10:58:48;36.10;37.20
11122;DHT22;5615;49.304;10.576;2022-08-05T11:01:16;36.20;35.20
11122;DHT22;5615;49.304;10.576;2022-08-05T11:03:59;35.70;35.50
11122;DHT22;5615;49.304;10.576;2022-08-05T11:06:25;35.70;34.10
11122;DHT22;5615;49.304;10.576;2022-08-05T11:09:12;35.40;34.10
11122;DHT22;5615;49.304;10.576;2022-08-05T11:11:42;35.10;34.90
11122;DHT22;5615;49.304;10.576;2022-08-05T11:14:12;36.00;33.80
11122;DHT22;5615;49.304;10.576;2022-08-05T11:16:40;37.60;32.50
11122;DHT22;5615;49.304;10.576;2022-08-05T11:19:27;37.60;31.60
11122;DHT22;5615;49.304;10.576;2022-08-05T11:21:55;37.80;31.40
11122;DHT22;5615;49.304;10.576;2022-08-05T11:24:22;38.20;30.00
11122;DHT22;5615;49.304;10.576;2022-08-05T11:29:36;38.90;27.30
11122;DHT22;5615;49.304;10.576;2022-08-05T11:32:26;38.90;27.00
11122;DHT22;5615;49.304;10.576;2022-08-05T11:34:53;39.10;27.00
11122;DHT22;5615;49.304;10.576;2022-08-05T11:37:59;38.30;26.20
11122;DHT22;5615;49.304;10.576;2022-08-05T11:40:55;36.40;27.50
11122;DHT22;5615;49.304;10.576;2022-08-05T11:43:23;35.60;28.60
11122;DHT22;5615;49.304;10.576;2022-08-05T11:45:50;35.80;28.70
11122;DHT22;5615;49.304;10.576;2022-08-05T11:48:18;37.30;28.20
11122;DHT22;5615;49.304;10.576;2022-08-05T11:50:46;36.60;27.70
11122;DHT22;5615;49.304;10.576;2022-08-05T11:53:13;37.80;27.30
11122;DHT22;5615;49.304;10.576;2022-08-05T11:55:52;39.00;26.00
11122;DHT22;5615;49.304;10.576;2022-08-05T11:58:24;39.00;26.00
11122;DHT22;5615;49.304;10.576;2022-08-05T12:01:00;38.10;26.50
11122;DHT22;5615;49.304;10.576;2022-08-05T12:03:29;38.70;25.50
11122;DHT22;5615;49.304;10.576;2022-08-05T12:06:01;39.90;25.40
11122;DHT22;5615;49.304;10.576;2022-08-05T12:08:28;37.30;24.90
11122;DHT22;5615;49.304;10.576;2022-08-05T12:10:57;37.00;25.80
11122;DHT22;5615;49.304;10.576;2022-08-05T12:13:24;37.80;24.90
11122;DHT22;5615;49.304;10.576;2022-08-05T12:15:51;37.90;24.80
11122;DHT22;5615;49.304;10.576;2022-08-05T12:18:18;36.50;25.80
11122;DHT22;5615;49.304;10.576;2022-08-05T12:20:46;37.30;25.80
11122;DHT22;5615;49.304;10.576;2022-08-05T12:23:13;37.50;25.30
11122;DHT22;5615;49.304;10.576;2022-08-05T12:25:50;37.60;25.30
11122;DHT22;5615;49.304;10.576;2022-08-05T12:28:30;38.00;24.70
11122;DHT22;5615;49.304;10.576;2022-08-05T12:30:57;38.40;24.90
11122;DHT22;5615;49.304;10.576;2022-08-05T12:33:24;38.70;24.60
11122;DHT22;5615;49.304;10.576;2022-08-05T12:35:52;38.90;24.60
11122;DHT22;5615;49.304;10.576;2022-08-05T12:38:19;38.80;24.70
11122;DHT22;5615;49.304;10.576;2022-08-05T12:40:46;40.20;23.80
11122;DHT22;5615;49.304;10.576;2022-08-05T12:43:13;39.80;23.50
11122;DHT22;5615;49.304;10.576;2022-08-05T12:45:49;38.70;23.70
11122;DHT22;5615;49.304;10.576;2022-08-05T12:48:16;40.00;23.80
11122;DHT22;5615;49.304;10.576;2022-08-05T12:50:42;41.40;22.80
11122;DHT22;5615;49.304;10.576;2022-08-05T12:53:15;40.80;22.80
11122;DHT22;5615;49.304;10.576;2022-08-05T12:55:41;40.60;22.50
11122;DHT22;5615;49.304;10.576;2022-08-05T12:58:22;40.40;22.00
11122;DHT22;5615;49.304;10.576;2022-08-05T13:00:50;40.10;22.20
11122;DHT22;5615;49.304;10.576;2022-08-05T13:03:16;40.00;22.10
11122;DHT22;5615;49.304;10.576;2022-08-05T13:05:45;40.50;21.60
11122;DHT22;5615;49.304;10.576;2022-08-05T13:08:16;41.60;20.90
11122;DHT22;5615;49.304;10.576;2022-08-05T13:10:43;41.20;21.00
11122;DHT22;5615;49.304;10.576;2022-08-05T13:13:10;40.80;20.80
11122;DHT22;5615;49.304;10.576;2022-08-05T13:15:38;41.30;20.80
11122;DHT22;5615;49.304;10.576;2022-08-05T13:18:05;41.00;20.60
11122;DHT22;5615;49.304;10.576;2022-08-05T13:20:33;40.60;19.50
11122;DHT22;5615;49.304;10.576;2022-08-05T13:22:59;40.80;19.50
11122;DHT22;5615;49.304;10.576;2022-08-05T13:25:28;41.60;19.60
11122;DHT22;5615;49.304;10.576;2022-08-05T13:27:54;43.20;18.90
11122;DHT22;5615;49.304;10.576;2022-08-05T13:30:22;44.00;18.10
11122;DHT22;5615;49.304;10.576;2022-08-05T13:32:50;42.70;18.00
11122;DHT22;5615;49.304;10.576;2022-08-05T13:35:18;43.10;18.20
11122;DHT22;5615;49.304;10.576;2022-08-05T13:37:45;42.60;17.60
11122;DHT22;5615;49.304;10.576;2022-08-05T13:40:13;41.40;18.30
11122;DHT22;5615;49.304;10.576;2022-08-05T13:42:40;40.60;18.80
11122;DHT22;5615;49.304;10.576;2022-08-05T13:45:09;41.40;18.50
11122;DHT22;5615;49.304;10.576;2022-08-05T13:47:36;42.40;18.30
11122;DHT22;5615;49.304;10.576;2022-08-05T13:50:05;41.90;18.60
11122;DHT22;5615;49.304;10.576;2022-08-05T13:52:31;41.80;18.50
11122;DHT22;5615;49.304;10.576;2022-08-05T13:54:58;41.00;18.80
11122;DHT22;5615;49.304;10.576;2022-08-05T13:57:25;41.40;18.60
11122;DHT22;5615;49.304;10.576;2022-08-05T13:59:53;41.20;18.40
11122;DHT22;5615;49.304;10.576;2022-08-05T14:02:20;41.30;18.40
11122;DHT22;5615;49.304;10.576;2022-08-05T14:04:47;41.60;18.10
11122;DHT22;5615;49.304;10.576;2022-08-05T14:07:33;41.20;18.20
11122;DHT22;5615;49.304;10.576;2022-08-05T14:10:01;41.00;17.80
11122;DHT22;5615;49.304;10.576;2022-08-05T14:12:28;40.30;18.50
11122;DHT22;5615;49.304;10.576;2022-08-05T14:14:55;41.00;18.40
11122;DHT22;5615;49.304;10.576;2022-08-05T14:17:22;41.60;17.90
11122;DHT22;5615;49.304;10.576;2022-08-05T14:19:51;42.30;17.70
11122;DHT22;5615;49.304;10.576;2022-08-05T14:22:18;42.00;17.50
11122;DHT22;5615;49.304;10.576;2022-08-05T14:24:46;42.30;17.40
11122;DHT22;5615;49.304;10.576;2022-08-05T14:27:12;42.50;17.40
11122;DHT22;5615;49.304;10.576;2022-08-05T14:29:39;42.50;17.20
11122;DHT22;5615;49.304;10.576;2022-08-05T14:32:07;41.80;17.10
11122;DHT22;5615;49.304;10.576;2022-08-05T14:34:34;41.60;17.60
11122;DHT22;5615;49.304;10.576;2022-08-05T14:37:01;42.10;17.00
11122;DHT22;5615;49.304;10.576;2022-08-05T14:39:27;42.40;16.90
11122;DHT22;5615;49.304;10.576;2022-08-05T14:41:54;42.40;16.70
11122;DHT22;5615;49.304;10.576;2022-08-05T14:44:21;42.00;16.70
11122;DHT22;5615;49.304;10.576;2022-08-05T14:46:48;39.20;17.30
11122;DHT22;5615;49.304;10.576;2022-08-05T14:49:16;36.80;19.90
11122;DHT22;5615;49.304;10.576;2022-08-05T14:51:42;37.30;20.40
11122;DHT22;5615;49.304;10.576;2022-08-05T14:54:10;36.60;20.60
11122;DHT22;5615;49.304;10.576;2022-08-05T14:56:37;35.80;21.40
11122;DHT22;5615;49.304;10.576;2022-08-05T14:59:04;35.00;22.70
11122;DHT22;5615;49.304;10.576;2022-08-05T15:01:30;34.70;23.60
11122;DHT22;5615;49.304;10.576;2022-08-05T15:03:57;34.50;23.80
11122;DHT22;5615;49.304;10.576;2022-08-05T15:06:25;34.00;24.20
11122;DHT22;5615;49.304;10.576;2022-08-05T15:08:52;33.80;24.60
11122;DHT22;5615;49.304;10.576;2022-08-05T15:11:20;33.90;25.30
11122;DHT22;5615;49.304;10.576;2022-08-05T15:13:46;34.70;24.50
11122;DHT22;5615;49.304;10.576;2022-08-05T15:16:13;34.10;24.80
11122;DHT22;5615;49.304;10.576;2022-08-05T15:18:40;33.30;25.60
11122;DHT22;5615;49.304;10.576;2022-08-05T15:21:06;33.50;26.60
11122;DHT22;5615;49.304;10.576;2022-08-05T15:23:35;33.20;26.30
11122;DHT22;5615;49.304;10.576;2022-08-05T15:26:01;34.00;26.30
11122;DHT22;5615;49.304;10.576;2022-08-05T15:28:28;34.30;25.70
11122;DHT22;5615;49.304;10.576;2022-08-05T15:30:55;35.60;24.60
11122;DHT22;5615;49.304;10.576;2022-08-05T15:33:22;35.70;24.10
11122;DHT22;5615;49.304;10.576;2022-08-05T15:35:49;37.00;23.70
11122;DHT22;5615;49.304;10.576;2022-08-05T15:38:15;37.00;23.40
11122;DHT22;5615;49.304;10.576;2022-08-05T15:40:43;36.10;23.80
11122;DHT22;5615;49.304;10.576;2022-08-05T15:43:10;35.70;24.60